Time;durP1;ratioP1;P1;durP2;ratioP2;P2;SDS_P1;SDS_P2;PMS_P1;PMS_P2;Temp;Humidity;BMP_temperature;BMP_pressure;BME280_temperature;BME280_humidity;BME280_pressure;Samples;Min_cycle;Max_cycle;Signal;HPM_P1;HPM_P2
2023/03/21 00:02:18;;;;;;;7.90;7.20;;;12.50;99.90;;;;;;5052899;28;20263;-78
2023/03/21 00:04:45;;;;;;;8.88;8.18;;;12.50;99.90;;;;;;5052438;28;20221;-79
2023/03/21 00:07:12;;;;;;;10.23;8.00;;;12.40;99.90;;;;;;5051775;28;20240;-79
2023/03/21 00:09:39;;;;;;;8.95;7.88;;;12.40;99.90;;;;;;5050303;28;20455;-78
2023/03/21 00:12:15;;;;;;;7.70;6.93;;;12.40;99.90;;;;;;5050348;28;20316;-79
2023/03/21 00:14:43;;;;;;;10.38;7.47;;;12.40;99.90;;;;;;5048796;28;20270;-79
2023/03/21 00:17:11;;;;;;;8.13;7.43;;;12.30;99.90;;;;;;5046437;28;20213;-79
2023/03/21 00:19:40;;;;;;;9.93;9.07;;;12.30;99.90;;;;;;5060500;28;20317;-77
2023/03/21 00:22:07;;;;;;;8.20;7.40;;;12.30;99.90;;;;;;5046655;28;20279;-77
2023/03/21 00:24:34;;;;;;;7.97;7.28;;;12.30;99.90;;;;;;5052024;28;20228;-79
2023/03/21 00:27:02;;;;;;;10.63;8.07;;;12.30;99.90;;;;;;5033619;28;20236;-80
2023/03/21 00:29:30;;;;;;;8.45;7.75;;;12.20;99.90;;;;;;5036770;28;20324;-80
2023/03/21 00:31:57;;;;;;;6.45;5.95;;;12.20;99.90;;;;;;5039592;28;20228;-79
2023/03/21 00:34:25;;;;;;;6.93;6.30;;;12.20;99.90;;;;;;5035858;28;20252;-79
2023/03/21 00:36:52;;;;;;;7.97;7.20;;;12.20;99.90;;;;;;5052329;28;20614;-76
2023/03/21 00:39:20;;;;;;;13.07;7.57;;;12.20;99.90;;;;;;5050359;28;20248;-77
2023/03/21 00:41:48;;;;;;;8.07;7.47;;;12.20;99.90;;;;;;5052588;28;20229;-76
2023/03/21 00:44:16;;;;;;;8.63;7.88;;;12.20;99.90;;;;;;5049990;28;20247;-76
2023/03/21 00:46:44;;;;;;;8.05;7.35;;;12.10;99.90;;;;;;5040078;28;20664;-76
2023/03/21 00:49:11;;;;;;;8.80;8.00;;;12.10;99.90;;;;;;5043386;28;20240;-77
2023/03/21 00:51:38;;;;;;;10.43;9.48;;;12.10;99.90;;;;;;5042857;28;20220;-80
2023/03/21 00:54:06;;;;;;;8.65;7.95;;;12.10;99.90;;;;;;5067533;28;20228;-79
2023/03/21 00:56:33;;;;;;;9.32;8.52;;;12.10;99.90;;;;;;5063635;28;20587;-79
2023/03/21 00:59:00;;;;;;;11.02;9.90;;;12.10;99.90;;;;;;5040154;28;20252;-79
2023/03/21 01:01:30;;;;;;;10.32;9.52;;;12.10;99.90;;;;;;5045416;28;20233;-79
2023/03/21 01:04:04;;;;;;;11.27;10.20;;;12.10;99.90;;;;;;5034015;28;20233;-78
2023/03/21 01:06:32;;;;;;;8.70;8.00;;;12.10;99.90;;;;;;5032438;28;20517;-79
2023/03/21 01:08:59;;;;;;;10.25;9.43;;;12.10;99.90;;;;;;5032956;28;20230;-79
2023/03/21 01:11:28;;;;;;;13.75;9.20;;;12.10;99.90;;;;;;5031328;28;20287;-79
2023/03/21 01:13:56;;;;;;;9.75;8.80;;;12.00;99.90;;;;;;5031852;28;20225;-77
2023/03/21 01:16:23;;;;;;;9.43;8.60;;;12.10;99.90;;;;;;5030739;28;20691;-77
2023/03/21 01:18:50;;;;;;;8.98;8.27;;;12.00;99.90;;;;;;5032149;28;20245;-80
2023/03/21 01:21:19;;;;;;;11.10;9.35;;;12.00;99.90;;;;;;5031337;28;20221;-77
2023/03/21 01:23:46;;;;;;;13.05;11.95;;;12.10;99.90;;;;;;5032493;28;20679;-76
2023/03/21 01:26:15;;;;;;;12.95;11.30;;;12.00;99.90;;;;;;5032286;28;20283;-77
2023/03/21 01:28:43;;;;;;;12.43;11.32;;;12.00;99.90;;;;;;5033354;28;20291;-76
2023/03/21 01:31:13;;;;;;;13.30;12.10;;;12.00;99.90;;;;;;5032203;28;20283;-76
2023/03/21 01:33:40;;;;;;;15.90;12.52;;;12.00;99.90;;;;;;5034036;28;20558;-76
2023/03/21 01:36:09;;;;;;;15.82;13.32;;;12.00;99.90;;;;;;5033169;28;20287;-77
2023/03/21 01:38:37;;;;;;;14.43;13.02;;;12.00;99.90;;;;;;5031499;28;20256;-77
2023/03/21 01:41:05;;;;;;;15.60;13.93;;;11.90;99.90;;;;;;5032337;28;20230;-76
2023/03/21 01:43:34;;;;;;;15.80;14.20;;;11.90;99.90;;;;;;5032756;28;20680;-77
2023/03/21 01:46:25;;;;;;;13.77;12.57;;;11.90;99.90;;;;;;5032826;28;20239;-77
2023/03/21 01:48:57;;;;;;;14.68;13.18;;;11.90;99.90;;;;;;5032895;28;20232;-76
2023/03/21 01:51:26;;;;;;;14.32;13.00;;;11.90;99.90;;;;;;5032354;28;20225;-77
2023/03/21 01:53:55;;;;;;;15.50;13.93;;;11.90;99.90;;;;;;5032901;28;20583;-77
2023/03/21 01:56:26;;;;;;;15.60;14.18;;;11.90;99.90;;;;;;5032014;28;20229;-75
2023/03/21 01:58:58;;;;;;;20.13;18.23;;;11.90;99.90;;;;;;5032498;28;20229;-76
2023/03/21 02:01:25;;;;;;;20.45;18.50;;;11.90;99.90;;;;;;5031989;28;20233;-76
2023/03/21 02:03:52;;;;;;;19.63;17.83;;;11.90;99.90;;;;;;5032578;28;20245;-76
2023/03/21 02:06:32;;;;;;;19.00;17.08;;;11.80;99.90;;;;;;5032110;28;20229;-76
2023/03/21 02:09:04;;;;;;;32.50;26.00;;;11.80;99.90;;;;;;5032539;28;20229;-75
2023/03/21 02:11:32;;;;;;;23.38;21.08;;;11.80;99.90;;;;;;5031138;28;20225;-75
2023/03/21 02:13:59;;;;;;;25.25;22.90;;;11.80;99.90;;;;;;5032367;28;20224;-77
2023/03/21 02:16:35;;;;;;;22.02;19.88;;;11.80;99.90;;;;;;5031978;28;20248;-76
2023/03/21 02:19:18;;;;;;;20.48;18.42;;;11.80;99.90;;;;;;5032598;28;20258;-78
2023/03/21 02:22:10;;;;;;;22.80;20.77;;;11.80;99.90;;;;;;5032942;28;20304;-79
2023/03/21 02:25:10;;;;;;;23.27;21.08;;;11.80;99.90;;;;;;5032171;28;20240;-79
2023/03/21 02:27:40;;;;;;;20.20;18.15;;;11.80;99.90;;;;;;5031486;28;20612;-78
2023/03/21 02:30:36;;;;;;;24.05;21.75;;;11.80;99.90;;;;;;5032498;28;20283;-79
2023/03/21 02:33:34;;;;;;;26.90;24.00;;;11.80;99.90;;;;;;5031911;28;20234;-78
2023/03/21 02:36:16;;;;;;;28.23;25.38;;;11.80;99.90;;;;;;5031678;28;20259;-76
2023/03/21 02:38:51;;;;;;;24.70;22.17;;;11.80;99.90;;;;;;5031924;28;20233;-79
2023/03/21 02:41:21;;;;;;;25.88;23.17;;;11.80;99.90;;;;;;5033124;28;20229;-79
2023/03/21 02:43:55;;;;;;;25.85;23.25;;;11.80;99.90;;;;;;5036468;28;20279;-79
2023/03/21 02:46:33;;;;;;;28.25;25.30;;;11.80;99.90;;;;;;5038390;28;20247;-79
2023/03/21 02:49:08;;;;;;;24.20;21.83;;;11.70;99.90;;;;;;5037749;28;20236;-79
2023/03/21 02:51:37;;;;;;;26.23;23.73;;;11.80;99.90;;;;;;5049291;28;20235;-79
2023/03/21 02:54:11;;;;;;;23.63;21.33;;;11.80;99.90;;;;;;5049490;28;20283;-79
2023/03/21 02:56:39;;;;;;;24.85;22.27;;;11.80;99.90;;;;;;5050931;28;20233;-79
2023/03/21 02:59:07;;;;;;;26.50;23.88;;;11.80;99.90;;;;;;5050092;28;20233;-79
2023/03/21 03:01:34;;;;;;;29.45;24.02;;;11.90;99.90;;;;;;5050561;28;20222;-79
2023/03/21 03:04:01;;;;;;;24.88;22.38;;;11.90;99.90;;;;;;5054346;28;20225;-78
2023/03/21 03:06:37;;;;;;;25.35;22.90;;;11.90;99.90;;;;;;5043029;28;20257;-79
2023/03/21 03:09:30;;;;;;;24.58;21.98;;;12.00;99.90;;;;;;5036254;28;20539;-78
2023/03/21 03:12:05;;;;;;;25.48;22.85;;;12.00;99.90;;;;;;5037707;28;21075;-78
2023/03/21 03:14:45;;;;;;;27.17;24.25;;;12.00;99.90;;;;;;5040049;28;20228;-78
2023/03/21 03:17:42;;;;;;;25.42;22.70;;;12.00;99.90;;;;;;5042074;28;20562;-76
2023/03/21 03:20:29;;;;;;;26.23;23.63;;;12.00;99.90;;;;;;5038846;28;20308;-78
2023/03/21 03:23:24;;;;;;;26.00;23.27;;;12.00;99.90;;;;;;5033739;28;20304;-76
2023/03/21 03:26:09;;;;;;;26.80;23.52;;;12.00;99.90;;;;;;5024178;28;20253;-75
2023/03/21 03:28:40;;;;;;;26.80;23.90;;;12.00;99.90;;;;;;5038675;28;20235;-77
2023/03/21 03:31:13;;;;;;;24.90;22.35;;;12.00;99.90;;;;;;5035951;28;20240;-77
2023/03/21 03:33:54;;;;;;;24.55;21.98;;;12.00;99.90;;;;;;5035468;28;20233;-75
2023/03/21 03:36:26;;;;;;;26.60;23.77;;;12.00;99.90;;;;;;5028875;28;20264;-76
2023/03/21 03:38:54;;;;;;;25.08;21.67;;;12.00;99.90;;;;;;5034659;28;20255;-78
2023/03/21 03:41:26;;;;;;;23.73;21.35;;;12.00;99.90;;;;;;5034753;28;20260;-78
2023/03/21 03:43:57;;;;;;;28.40;22.45;;;11.90;99.90;;;;;;5034961;28;20300;-78
2023/03/21 03:46:32;;;;;;;27.50;22.90;;;11.90;99.90;;;;;;5035865;28;20233;-79
2023/03/21 03:49:05;;;;;;;25.55;22.90;;;11.90;99.90;;;;;;5034603;28;20225;-77
2023/03/21 03:51:36;;;;;;;27.15;22.42;;;11.90;99.90;;;;;;5031511;28;20225;-76
2023/03/21 03:54:13;;;;;;;28.00;25.02;;;11.80;99.90;;;;;;5033822;28;20225;-76
2023/03/21 03:56:45;;;;;;;26.60;23.77;;;11.80;99.90;;;;;;5034023;28;20236;-77
2023/03/21 03:59:18;;;;;;;25.77;23.08;;;11.80;99.90;;;;;;5038448;28;20710;-80
2023/03/21 04:01:46;;;;;;;25.15;22.55;;;11.80;99.90;;;;;;5041041;28;20658;-80
2023/03/21 04:04:15;;;;;;;24.05;21.65;;;11.70;99.90;;;;;;5041402;28;20312;-79
2023/03/21 04:06:44;;;;;;;28.15;23.52;;;11.70;99.90;;;;;;5037769;28;20320;-79
2023/03/21 04:09:12;;;;;;;25.33;22.63;;;11.70;99.90;;;;;;5041555;28;20562;-78
2023/03/21 04:11:39;;;;;;;25.05;22.25;;;11.70;99.90;;;;;;5042575;28;20225;-77
2023/03/21 04:14:08;;;;;;;24.35;21.65;;;11.70;99.90;;;;;;5040048;28;20217;-77
2023/03/21 04:16:36;;;;;;;24.45;21.85;;;11.60;99.90;;;;;;5035685;28;20225;-77
2023/03/21 04:19:03;;;;;;;27.30;22.90;;;11.60;99.90;;;;;;5034697;28;20413;-77
2023/03/21 04:21:30;;;;;;;25.73;22.02;;;11.60;99.90;;;;;;5038295;28;20717;-79
2023/03/21 04:23:58;;;;;;;25.65;22.85;;;11.60;99.90;;;;;;5037042;28;20683;-79
2023/03/21 04:26:31;;;;;;;28.17;23.52;;;11.60;99.90;;;;;;5036335;28;20243;-79
2023/03/21 04:29:04;;;;;;;28.27;23.80;;;11.60;99.90;;;;;;5034181;28;20229;-76
2023/03/21 04:31:34;;;;;;;25.80;23.00;;;11.50;99.90;;;;;;5036556;28;20744;-76
2023/03/21 04:34:22;;;;;;;23.05;20.10;;;11.50;99.90;;;;;;5035983;28;20706;-78
2023/03/21 04:36:52;;;;;;;24.70;22.08;;;11.60;99.90;;;;;;5028320;28;20225;-77
2023/03/21 04:39:20;;;;;;;27.98;21.67;;;11.60;99.90;;;;;;5040299;28;20236;-76
2023/03/21 04:41:48;;;;;;;28.60;24.80;;;11.60;99.90;;;;;;5038145;28;20313;-78
2023/03/21 04:44:16;;;;;;;26.13;23.25;;;11.50;99.90;;;;;;5038727;28;20266;-79
2023/03/21 04:46:45;;;;;;;25.73;22.65;;;11.50;99.90;;;;;;5037437;28;20683;-76
2023/03/21 04:49:12;;;;;;;25.13;22.42;;;11.50;99.90;;;;;;5035822;28;20320;-76
2023/03/21 04:51:40;;;;;;;26.88;22.88;;;11.50;99.90;;;;;;5038243;28;20221;-79
2023/03/21 04:54:07;;;;;;;24.52;21.65;;;11.60;99.90;;;;;;5038067;28;20225;-79
2023/03/21 04:56:35;;;;;;;28.63;23.00;;;11.60;99.90;;;;;;5038563;28;20233;-79
2023/03/21 04:59:07;;;;;;;24.27;20.90;;;11.60;99.90;;;;;;5035244;28;20225;-77
2023/03/21 05:01:34;;;;;;;24.45;21.92;;;11.60;99.90;;;;;;5033928;28;20567;-77
2023/03/21 05:04:04;;;;;;;28.88;22.35;;;11.60;99.90;;;;;;5032920;28;20228;-76
2023/03/21 05:06:32;;;;;;;24.25;21.65;;;11.60;99.90;;;;;;5036766;28;20225;-79
2023/03/21 05:09:04;;;;;;;25.33;22.65;;;11.60;99.90;;;;;;5036781;28;20236;-78
2023/03/21 05:11:32;;;;;;;26.33;23.50;;;11.60;99.90;;;;;;5037658;28;20599;-78
2023/03/21 05:14:00;;;;;;;26.85;22.30;;;11.50;99.90;;;;;;5034015;28;20241;-78
2023/03/21 05:16:29;;;;;;;24.33;21.48;;;11.50;99.90;;;;;;5035312;28;20705;-74
2023/03/21 05:18:57;;;;;;;25.38;22.27;;;11.60;99.90;;;;;;5033178;28;20255;-80
2023/03/21 05:21:28;;;;;;;24.95;20.70;;;11.50;99.90;;;;;;5033134;28;20233;-78
2023/03/21 05:23:57;;;;;;;26.70;23.40;;;11.60;99.90;;;;;;5033416;28;20287;-78
2023/03/21 05:26:25;;;;;;;27.75;22.92;;;11.50;99.90;;;;;;5034379;28;20217;-78
2023/03/21 05:28:52;;;;;;;26.27;22.58;;;11.50;99.90;;;;;;5034346;28;20287;-80
2023/03/21 05:31:19;;;;;;;28.58;23.00;;;11.50;99.90;;;;;;5033588;28;20222;-77
2023/03/21 05:33:47;;;;;;;26.98;21.52;;;11.50;99.90;;;;;;5033342;28;20283;-77
2023/03/21 05:36:15;;;;;;;31.23;22.88;;;11.50;99.90;;;;;;5033112;28;20226;-77
2023/03/21 05:38:45;;;;;;;28.70;23.25;;;11.50;99.90;;;;;;5033739;28;20601;-77
2023/03/21 05:41:12;;;;;;;29.73;23.10;;;11.50;99.90;;;;;;5033374;28;20268;-77
2023/03/21 05:43:40;;;;;;;27.27;23.08;;;11.40;99.90;;;;;;5033390;28;20336;-76
2023/03/21 05:46:07;;;;;;;28.20;23.20;;;11.40;99.90;;;;;;5033235;28;20229;-76
2023/03/21 05:48:35;;;;;;;29.40;23.83;;;11.40;99.90;;;;;;5033389;28;20225;-76
2023/03/21 05:51:02;;;;;;;31.95;24.75;;;11.40;99.90;;;;;;5031908;28;20260;-77
2023/03/21 05:53:30;;;;;;;33.40;24.02;;;11.40;99.90;;;;;;5033841;28;20291;-77
2023/03/21 05:55:58;;;;;;;30.42;22.90;;;11.40;99.90;;;;;;5033389;28;20221;-79
2023/03/21 05:58:28;;;;;;;28.10;22.75;;;11.40;99.90;;;;;;5032668;28;21027;-80
2023/03/21 06:00:55;;;;;;;32.38;23.50;;;11.40;99.90;;;;;;5033346;28;20221;-79
2023/03/21 06:03:22;;;;;;;26.27;22.30;;;11.40;99.90;;;;;;5035028;28;20356;-78
2023/03/21 06:05:50;;;;;;;26.85;23.92;;;11.40;99.90;;;;;;5033535;28;20702;-77
2023/03/21 06:08:17;;;;;;;32.78;25.30;;;11.40;99.90;;;;;;5035616;28;20229;-77
2023/03/21 06:10:44;;;;;;;29.58;21.70;;;11.40;99.90;;;;;;5033484;28;20232;-77
2023/03/21 06:13:13;;;;;;;26.70;22.20;;;11.40;99.90;;;;;;5032557;28;20612;-77
2023/03/21 06:15:40;;;;;;;28.58;22.83;;;11.40;99.90;;;;;;5033683;28;20324;-77
2023/03/21 06:18:07;;;;;;;26.75;21.52;;;11.40;99.90;;;;;;5031986;28;20280;-77
2023/03/21 06:20:34;;;;;;;29.02;23.42;;;11.50;99.90;;;;;;5031870;28;20221;-76
2023/03/21 06:23:01;;;;;;;30.70;22.48;;;11.50;99.90;;;;;;5032774;28;20312;-77
2023/03/21 06:25:29;;;;;;;33.42;24.70;;;11.50;99.90;;;;;;5036358;28;20225;-80
2023/03/21 06:27:56;;;;;;;30.20;23.75;;;11.50;99.90;;;;;;5031856;28;20221;-77
2023/03/21 06:30:25;;;;;;;29.80;23.85;;;11.50;99.90;;;;;;5032704;28;20220;-77
2023/03/21 06:32:55;;;;;;;23.50;20.70;;;11.50;99.90;;;;;;5025051;28;20221;-77
2023/03/21 06:35:22;;;;;;;28.95;23.30;;;11.50;99.90;;;;;;5034981;28;20214;-77
2023/03/21 06:37:49;;;;;;;28.67;22.65;;;11.60;99.90;;;;;;5036652;28;20256;-80
2023/03/21 06:40:17;;;;;;;27.33;23.05;;;11.60;99.90;;;;;;5036534;28;20256;-80
2023/03/21 06:42:44;;;;;;;29.85;23.52;;;11.60;99.90;;;;;;5038605;28;20229;-80
2023/03/21 06:45:11;;;;;;;30.02;24.58;;;11.60;99.90;;;;;;5033974;28;20221;-78
2023/03/21 06:47:40;;;;;;;33.10;26.85;;;11.60;99.90;;;;;;5036584;28;20259;-80
2023/03/21 06:50:08;;;;;;;31.65;25.38;;;11.60;99.90;;;;;;5037175;28;20271;-80
2023/03/21 06:52:35;;;;;;;36.00;26.08;;;11.60;99.90;;;;;;5034797;28;20650;-80
2023/03/21 06:55:02;;;;;;;32.95;25.00;;;11.70;99.90;;;;;;5040029;28;20244;-79
2023/03/21 06:57:29;;;;;;;35.72;26.70;;;11.70;99.90;;;;;;5037231;28;20257;-77
2023/03/21 06:59:56;;;;;;;30.88;25.60;;;11.70;99.90;;;;;;5033462;28;20225;-79
2023/03/21 07:02:24;;;;;;;32.83;26.38;;;11.70;99.90;;;;;;5032867;28;20355;-77
2023/03/21 07:04:52;;;;;;;30.70;24.20;;;11.70;99.90;;;;;;5033295;28;20228;-77
2023/03/21 07:07:19;;;;;;;30.23;26.00;;;11.70;99.90;;;;;;5033297;28;20224;-79
2023/03/21 07:09:50;;;;;;;32.83;25.95;;;11.70;99.90;;;;;;5033990;28;20221;-80
2023/03/21 07:12:20;;;;;;;33.33;25.73;;;11.70;99.90;;;;;;5032110;28;20263;-79
2023/03/21 07:14:48;;;;;;;32.92;27.65;;;11.60;99.90;;;;;;5032483;28;20237;-76
2023/03/21 07:17:15;;;;;;;35.25;25.02;;;11.70;99.90;;;;;;5031744;28;20569;-78
2023/03/21 07:19:43;;;;;;;31.48;25.73;;;11.70;99.90;;;;;;5032346;28;20226;-79
2023/03/21 07:22:13;;;;;;;27.30;23.42;;;11.70;99.90;;;;;;5032156;28;20316;-79
2023/03/21 07:24:41;;;;;;;31.48;25.38;;;11.70;99.90;;;;;;5032435;28;20221;-79
2023/03/21 07:27:08;;;;;;;31.23;23.95;;;11.60;99.90;;;;;;5031767;28;20233;-77
2023/03/21 07:29:35;;;;;;;30.17;25.65;;;11.60;99.90;;;;;;5031912;28;20240;-76
2023/03/21 07:32:02;;;;;;;30.35;25.17;;;11.60;99.90;;;;;;5035666;28;20789;-79
2023/03/21 07:34:32;;;;;;;33.95;24.02;;;11.60;99.90;;;;;;5035121;28;20252;-76
2023/03/21 07:36:59;;;;;;;33.15;24.85;;;11.60;99.90;;;;;;5035748;28;20522;-76
2023/03/21 07:39:28;;;;;;;32.65;25.05;;;11.60;99.90;;;;;;5034258;28;20703;-77
2023/03/21 07:41:55;;;;;;;34.38;24.73;;;11.60;99.90;;;;;;5036231;28;20287;-77
2023/03/21 07:44:23;;;;;;;30.95;24.85;;;11.60;99.90;;;;;;5034902;28;20229;-77
2023/03/21 07:47:22;;;;;;;33.92;26.35;;;11.60;99.90;;;;;;5035073;28;20678;-76
2023/03/21 07:49:50;;;;;;;34.58;28.65;;;11.60;99.90;;;;;;5033015;28;20669;-77
2023/03/21 07:52:16;;;;;;;34.30;27.20;;;11.60;99.90;;;;;;5034733;28;20227;-80
2023/03/21 07:54:45;;;;;;;31.80;26.75;;;11.60;99.90;;;;;;5034082;28;20217;-77
2023/03/21 07:57:12;;;;;;;30.00;23.75;;;11.60;99.90;;;;;;5035156;28;20251;-80
2023/03/21 07:59:39;;;;;;;32.45;24.13;;;11.60;99.90;;;;;;5024684;28;20317;-80
2023/03/21 08:02:07;;;;;;;30.63;25.00;;;11.60;99.90;;;;;;5034116;28;20222;-79
2023/03/21 08:04:34;;;;;;;32.25;25.20;;;11.70;99.90;;;;;;5033682;28;20229;-80
2023/03/21 08:07:04;;;;;;;28.42;24.52;;;11.70;99.90;;;;;;5035068;28;20221;-79
2023/03/21 08:09:31;;;;;;;31.88;26.15;;;11.70;99.90;;;;;;5034214;28;20229;-79
2023/03/21 08:12:02;;;;;;;34.30;25.95;;;11.70;99.90;;;;;;5035003;28;20221;-79
2023/03/21 08:14:29;;;;;;;32.08;26.10;;;11.70;99.90;;;;;;5034344;28;20229;-79
2023/03/21 08:16:56;;;;;;;32.45;26.92;;;11.70;99.90;;;;;;5034847;28;20368;-77
2023/03/21 08:19:23;;;;;;;36.28;26.58;;;11.70;99.90;;;;;;5034535;28;20245;-77
2023/03/21 08:21:50;;;;;;;37.08;28.35;;;11.70;99.90;;;;;;5033220;28;20275;-79
2023/03/21 08:24:18;;;;;;;35.47;26.50;;;11.70;99.90;;;;;;5034738;28;20222;-77
2023/03/21 08:26:45;;;;;;;37.20;28.95;;;11.80;99.90;;;;;;5033638;28;20235;-79
2023/03/21 08:29:14;;;;;;;40.28;29.48;;;11.80;99.90;;;;;;5033695;28;20312;-76
2023/03/21 08:31:42;;;;;;;36.22;28.20;;;11.80;99.90;;;;;;5033602;28;20296;-77
2023/03/21 08:34:09;;;;;;;29.50;24.40;;;11.80;99.90;;;;;;5033003;28;20256;-77
2023/03/21 08:36:37;;;;;;;31.98;25.17;;;11.80;99.90;;;;;;5033343;28;20225;-77
2023/03/21 08:39:05;;;;;;;35.70;26.20;;;11.90;99.90;;;;;;5034069;28;20220;-76
2023/03/21 08:41:32;;;;;;;32.65;25.75;;;11.80;99.90;;;;;;5032972;28;20574;-77
2023/03/21 08:43:59;;;;;;;33.70;25.42;;;11.80;99.90;;;;;;5033335;28;20321;-76
2023/03/21 08:46:28;;;;;;;28.50;22.80;;;11.80;99.90;;;;;;5034142;28;20221;-77
2023/03/21 08:48:55;;;;;;;32.55;25.25;;;11.80;99.90;;;;;;5032971;28;20228;-76
2023/03/21 08:51:22;;;;;;;31.55;22.80;;;11.80;99.90;;;;;;5033713;28;20217;-75
2023/03/21 08:53:50;;;;;;;27.25;22.98;;;11.90;99.90;;;;;;5033320;28;20225;-76
2023/03/21 08:56:17;;;;;;;29.65;23.55;;;11.90;99.90;;;;;;5037256;28;20228;-76
2023/03/21 08:58:44;;;;;;;31.98;24.25;;;11.90;99.90;;;;;;5047240;28;20229;-76
2023/03/21 09:01:14;;;;;;;29.95;24.48;;;12.00;99.90;;;;;;5050408;28;20229;-76
2023/03/21 09:03:42;;;;;;;36.25;24.48;;;12.00;99.90;;;;;;5044228;28;20252;-76
2023/03/21 09:06:12;;;;;;;30.65;24.42;;;12.00;99.90;;;;;;5038490;28;20232;-76
2023/03/21 09:08:40;;;;;;;27.90;22.65;;;12.00;99.90;;;;;;5035128;28;20241;-78
2023/03/21 09:11:08;;;;;;;29.92;22.52;;;12.10;99.90;;;;;;5036298;28;20236;-78
2023/03/21 09:13:35;;;;;;;25.42;22.45;;;12.10;99.90;;;;;;5034331;28;20685;-79
2023/03/21 09:16:03;;;;;;;29.73;23.00;;;12.10;99.90;;;;;;5035114;28;20307;-77
2023/03/21 09:18:45;;;;;;;25.75;20.63;;;12.10;99.90;;;;;;5036333;28;20328;-79
2023/03/21 09:21:15;;;;;;;22.80;19.50;;;12.10;99.90;;;;;;5034742;28;20294;-76
2023/03/21 09:23:43;;;;;;;31.17;20.92;;;12.20;99.90;;;;;;5032970;28;20229;-79
2023/03/21 09:26:11;;;;;;;25.73;20.50;;;12.20;99.90;;;;;;5033536;28;20221;-80
2023/03/21 09:28:38;;;;;;;22.58;20.15;;;12.20;99.90;;;;;;5033721;28;20222;-79
2023/03/21 09:31:10;;;;;;;22.73;20.20;;;12.20;99.90;;;;;;5033962;28;20312;-76
2023/03/21 09:33:39;;;;;;;22.45;18.77;;;12.30;99.90;;;;;;5034075;28;20217;-76
2023/03/21 09:36:14;;;;;;;26.13;21.33;;;12.40;99.90;;;;;;5036550;28;20236;-78
2023/03/21 09:38:44;;;;;;;25.38;20.48;;;12.40;99.90;;;;;;5034322;28;20604;-76
2023/03/21 09:41:26;;;;;;;23.95;19.83;;;12.40;99.90;;;;;;5032481;28;20225;-79
2023/03/21 09:44:07;;;;;;;24.05;19.13;;;12.50;99.90;;;;;;5032687;28;20256;-78
2023/03/21 09:46:42;;;;;;;23.85;19.73;;;12.50;99.90;;;;;;5031492;28;20271;-78
2023/03/21 09:49:16;;;;;;;25.42;19.90;;;12.60;99.90;;;;;;5032987;28;20232;-79
2023/03/21 09:51:51;;;;;;;26.98;20.33;;;12.60;99.90;;;;;;5032346;28;20667;-78
2023/03/21 09:54:23;;;;;;;23.00;18.27;;;12.60;99.90;;;;;;5034263;28;20905;-78
2023/03/21 09:56:54;;;;;;;22.05;18.58;;;12.60;99.90;;;;;;5032756;28;20233;-78
2023/03/21 09:59:25;;;;;;;27.65;22.02;;;12.70;99.90;;;;;;5033040;28;20236;-79
2023/03/21 10:01:54;;;;;;;25.00;19.60;;;12.70;99.90;;;;;;5032693;28;20225;-79
2023/03/21 10:04:22;;;;;;;24.65;20.70;;;12.60;99.90;;;;;;5033142;28;20241;-79
2023/03/21 10:07:00;;;;;;;24.35;19.08;;;12.60;99.90;;;;;;5032380;28;20229;-78
2023/03/21 10:09:31;;;;;;;26.00;19.08;;;12.60;99.90;;;;;;5033179;28;20287;-79
2023/03/21 10:12:03;;;;;;;23.10;18.73;;;12.60;99.90;;;;;;5033428;28;20225;-76
2023/03/21 10:14:34;;;;;;;30.75;23.38;;;12.60;99.90;;;;;;5033196;28;20225;-77
2023/03/21 10:17:16;;;;;;;24.63;20.65;;;12.60;99.90;;;;;;5032820;28;20217;-78
2023/03/21 10:23:42;;;;;;;29.05;22.48;;;12.70;99.90;;;;;;5010425;28;20296;-77
2023/03/21 10:26:13;;;;;;;28.60;20.85;;;12.60;99.90;;;;;;5012175;28;20244;-77
2023/03/21 10:28:43;;;;;;;23.75;20.48;;;12.70;99.90;;;;;;5032153;28;20229;-79
2023/03/21 10:31:15;;;;;;;22.48;20.00;;;12.70;99.90;;;;;;5031774;28;20225;-77
2023/03/21 10:33:46;;;;;;;25.10;20.15;;;12.70;99.90;;;;;;5032917;28;20567;-79
2023/03/21 10:36:19;;;;;;;27.63;22.45;;;12.80;99.90;;;;;;5032491;28;20218;-79
2023/03/21 10:38:49;;;;;;;20.90;18.65;;;12.80;99.90;;;;;;5024440;28;20295;-79
2023/03/21 10:41:19;;;;;;;22.15;19.70;;;12.90;99.90;;;;;;5023405;28;20548;-79
2023/03/21 10:43:49;;;;;;;20.48;17.05;;;12.90;99.90;;;;;;5013468;28;20234;-80
2023/03/21 10:46:19;;;;;;;25.20;18.92;;;13.00;99.90;;;;;;5012550;28;20256;-77
2023/03/21 10:48:51;;;;;;;24.65;18.55;;;13.00;99.90;;;;;;5012766;28;20684;-79
2023/03/21 10:51:21;;;;;;;22.83;19.20;;;13.00;99.90;;;;;;5012156;28;20738;-76
2023/03/21 10:53:56;;;;;;;18.90;16.90;;;13.10;99.90;;;;;;5013326;28;20297;-79
2023/03/21 10:56:27;;;;;;;22.13;18.33;;;13.10;99.90;;;;;;5012316;28;20229;-79
2023/03/21 10:59:01;;;;;;;20.73;18.47;;;13.10;99.90;;;;;;5019838;28;20296;-77
2023/03/21 11:01:35;;;;;;;22.63;18.17;;;13.20;99.90;;;;;;5012770;28;20552;-76
2023/03/21 11:04:08;;;;;;;26.20;19.55;;;13.20;99.90;;;;;;5014751;28;20690;-77
2023/03/21 11:06:39;;;;;;;25.60;21.50;;;13.20;99.90;;;;;;5016641;28;20296;-80
2023/03/21 11:09:12;;;;;;;21.13;18.05;;;13.20;99.90;;;;;;5017193;28;20495;-77
2023/03/21 11:11:42;;;;;;;23.20;19.08;;;13.30;99.90;;;;;;5015850;28;23105;-80
2023/03/21 11:14:25;;;;;;;22.50;18.30;;;13.30;99.90;;;;;;5036034;28;20305;-78
2023/03/21 11:16:52;;;;;;;28.70;19.13;;;13.30;99.90;;;;;;5032757;28;20202;-79
2023/03/21 11:19:26;;;;;;;27.08;19.95;;;13.40;99.90;;;;;;5032004;28;20280;-80
2023/03/21 11:21:56;;;;;;;24.70;19.33;;;13.40;99.90;;;;;;5035528;28;20251;-79
2023/03/21 11:24:30;;;;;;;20.58;17.25;;;13.50;99.90;;;;;;5023654;28;20473;-77
2023/03/21 11:27:01;;;;;;;19.60;15.80;;;13.60;99.90;;;;;;5015814;28;20673;-76
2023/03/21 11:29:33;;;;;;;19.73;16.43;;;13.60;99.90;;;;;;5016492;28;20484;-77
2023/03/21 11:32:02;;;;;;;18.10;15.98;;;13.50;99.90;;;;;;5014776;28;20472;-77
2023/03/21 11:34:37;;;;;;;18.05;15.35;;;13.60;99.90;;;;;;5015913;28;20222;-77
2023/03/21 11:37:04;;;;;;;22.55;17.25;;;13.60;99.90;;;;;;5015835;28;20225;-80
2023/03/21 11:39:38;;;;;;;19.00;14.47;;;13.60;99.90;;;;;;5015458;28;20746;-77
2023/03/21 11:42:25;;;;;;;19.73;17.60;;;13.70;99.90;;;;;;5033526;28;20838;-76
2023/03/21 11:45:01;;;;;;;22.90;18.63;;;13.70;99.90;;;;;;5035250;28;20468;-79
2023/03/21 11:47:30;;;;;;;22.88;17.40;;;13.60;99.90;;;;;;5035630;28;20241;-76
2023/03/21 11:49:57;;;;;;;18.33;16.05;;;13.60;99.90;;;;;;5034790;28;20226;-77
2023/03/21 11:52:34;;;;;;;20.23;16.37;;;13.70;99.90;;;;;;5026825;28;20283;-79
2023/03/21 11:55:24;;;;;;;17.80;14.17;;;13.70;99.90;;;;;;5034641;28;20464;-79
2023/03/21 11:58:05;;;;;;;21.40;19.03;;;13.80;99.90;;;;;;5034409;28;20472;-79
2023/03/21 12:00:39;;;;;;;23.33;19.27;;;13.70;99.90;;;;;;5034961;28;21020;-77
2023/03/21 12:03:38;;;;;;;18.77;16.80;;;13.80;99.90;;;;;;5033619;28;20487;-79
2023/03/21 12:06:25;;;;;;;20.50;15.10;;;13.80;99.90;;;;;;5034762;28;20448;-79
2023/03/21 12:09:14;;;;;;;19.10;16.13;;;13.80;99.90;;;;;;5034148;28;20472;-79
2023/03/21 12:11:52;;;;;;;16.80;15.00;;;13.80;99.90;;;;;;5034687;28;20539;-79
2023/03/21 12:14:30;;;;;;;15.83;14.13;;;13.90;99.90;;;;;;5034331;28;20259;-79
2023/03/21 12:17:10;;;;;;;16.83;14.60;;;13.90;99.90;;;;;;5033367;28;20495;-78
2023/03/21 12:19:54;;;;;;;16.13;14.13;;;13.90;99.90;;;;;;5034628;28;20476;-76
2023/03/21 12:22:30;;;;;;;14.37;12.33;;;13.90;99.90;;;;;;5034708;28;20459;-79
2023/03/21 12:25:04;;;;;;;16.90;15.10;;;13.90;99.90;;;;;;5033990;28;20475;-78
2023/03/21 12:27:42;;;;;;;13.00;11.70;;;14.00;99.90;;;;;;5034887;28;20817;-79
2023/03/21 12:30:52;;;;;;;12.03;10.70;;;14.00;99.90;;;;;;5033911;28;20483;-76
2023/03/21 12:40:00;;;;;;;17.13;15.00;;;14.10;99.90;;;;;;4996439;28;20529;-79
2023/03/21 12:42:51;;;;;;;16.13;14.50;;;14.10;99.90;;;;;;5028675;28;20460;-76
2023/03/21 12:45:27;;;;;;;16.00;14.40;;;14.20;99.90;;;;;;5033027;28;20472;-76
2023/03/21 12:48:00;;;;;;;17.40;15.57;;;14.30;99.90;;;;;;5034840;28;20480;-79
2023/03/21 12:50:35;;;;;;;20.10;17.97;;;14.30;99.90;;;;;;5035286;28;20472;-75
2023/03/21 12:53:27;;;;;;;18.03;16.20;;;14.30;99.90;;;;;;5024000;28;20521;-75
2023/03/21 12:56:09;;;;;;;17.63;15.10;;;14.40;99.90;;;;;;5032891;28;20492;-76
2023/03/21 12:59:03;;;;;;;17.23;15.43;;;14.40;99.90;;;;;;5032583;28;20827;-77
2023/03/21 13:01:36;;;;;;;17.30;15.43;;;14.40;99.90;;;;;;5024892;28;20487;-75